Time;durP1;ratioP1;P1;durP2;ratioP2;P2;SDS_P1;SDS_P2;PMS_P1;PMS_P2;Temp;Humidity;BMP_temperature;BMP_pressure;BME280_temperature;BME280_humidity;BME280_pressure;Samples;Min_cycle;Max_cycle;Signal;HPM_P1;HPM_P2
2022/11/08 00:03:28;;;;;;;;;;;12.80;99.90;;;;;;5055682;28;20007;-69
2022/11/08 00:14:06;;;;;;;;;;;12.80;99.90;;;;;;5082485;28;19920;-68
2022/11/08 00:16:32;;;;;;;;;;;12.80;99.90;;;;;;5051378;28;19935;-69
2022/11/08 00:18:58;;;;;;;;;;;12.80;99.90;;;;;;5065031;28;19973;-69
2022/11/08 00:21:27;;;;;;;;;;;12.80;99.90;;;;;;5065011;28;20289;-69
2022/11/08 00:23:53;;;;;;;;;;;12.80;99.90;;;;;;5050166;28;20145;-69
2022/11/08 00:26:22;;;;;;;;;;;12.80;99.90;;;;;;5061893;28;20007;-69
2022/11/08 00:28:47;;;;;;;;;;;12.80;99.90;;;;;;5047109;28;20320;-69
2022/11/08 00:31:15;;;;;;;;;;;12.80;99.90;;;;;;5069145;28;19993;-69
2022/11/08 00:33:40;;;;;;;;;;;12.70;99.90;;;;;;5037387;28;19919;-69
2022/11/08 00:36:06;;;;;;;;;;;12.70;99.90;;;;;;5081199;28;19920;-69
2022/11/08 00:38:32;;;;;;;;;;;12.70;99.90;;;;;;5087176;28;19934;-69
2022/11/08 00:40:58;;;;;;;;;;;12.60;99.90;;;;;;5063330;28;19920;-69
2022/11/08 00:43:23;;;;;;;;;;;12.60;99.90;;;;;;5052609;28;20573;-69
2022/11/08 00:45:49;;;;;;;;;;;12.60;99.90;;;;;;5062038;28;19920;-69
2022/11/08 00:48:15;;;;;;;;;;;12.60;99.90;;;;;;5086664;28;19921;-69
2022/11/08 00:50:44;;;;;;;;;;;12.50;99.90;;;;;;5086858;28;20434;-68
2022/11/08 00:53:10;;;;;;;;;;;12.50;99.90;;;;;;5067736;28;19950;-69
2022/11/08 00:55:35;;;;;;;;;;;12.50;99.90;;;;;;5048124;28;19928;-74
2022/11/08 00:58:01;;;;;;;;;;;12.50;99.90;;;;;;5082752;28;19920;-69
2022/11/08 01:00:27;;;;;;;;;;;12.40;99.90;;;;;;5061592;28;19935;-69
2022/11/08 01:03:17;;;;;;;;;;;12.40;99.90;;;;;;5085891;28;20660;-69
2022/11/08 01:05:59;;;;;;;;;;;12.40;99.90;;;;;;5075129;28;19920;-69
2022/11/08 01:08:24;;;;;;;;;;;12.30;99.90;;;;;;5068181;28;19927;-69
2022/11/08 01:10:51;;;;;;;;;;;12.40;99.90;;;;;;5061740;28;20338;-69
2022/11/08 01:13:17;;;;;;;;;;;12.30;99.90;;;;;;5071915;28;20447;-69
2022/11/08 01:15:44;;;;;;;;;;;12.30;99.90;;;;;;5082733;28;19924;-69
2022/11/08 01:18:10;;;;;;;;;;;12.30;99.90;;;;;;5080053;28;19927;-69
2022/11/08 01:20:37;;;;;;;;;;;12.20;99.90;;;;;;5064801;28;19924;-68
2022/11/08 01:23:03;;;;;;;;;;;12.20;99.90;;;;;;5066634;28;19924;-69
2022/11/08 01:25:28;;;;;;;;;;;12.20;99.90;;;;;;5067674;28;19928;-69
2022/11/08 01:27:54;;;;;;;;;;;12.10;99.90;;;;;;5063113;28;19943;-69
2022/11/08 01:30:20;;;;;;;;;;;12.10;99.90;;;;;;5062233;28;19920;-68
2022/11/08 01:32:45;;;;;;;;;;;12.10;99.90;;;;;;5045638;28;20408;-68
2022/11/08 01:35:11;;;;;;;;;;;12.00;99.90;;;;;;5067751;28;20384;-69
2022/11/08 01:37:37;;;;;;;;;;;12.10;99.90;;;;;;5070546;28;19924;-68
2022/11/08 01:40:03;;;;;;;;;;;12.10;99.90;;;;;;5052070;28;20021;-68
2022/11/08 01:42:31;;;;;;;;;;;12.00;99.90;;;;;;5082430;28;20336;-69
2022/11/08 01:44:58;;;;;;;;;;;12.00;99.90;;;;;;5066138;28;19924;-68
2022/11/08 01:47:24;;;;;;;;;;;11.90;99.90;;;;;;5068068;28;19921;-69
2022/11/08 01:49:51;;;;;;;;;;;11.90;99.90;;;;;;5068764;28;19981;-68
2022/11/08 01:52:19;;;;;;;;;;;11.90;99.90;;;;;;5064338;28;19936;-69
2022/11/08 01:54:50;;;;;;;;;;;11.90;99.90;;;;;;5065665;28;19921;-68
2022/11/08 01:57:18;;;;;;;;;;;11.90;99.90;;;;;;5046803;28;20430;-69
2022/11/08 01:59:45;;;;;;;;;;;11.90;99.90;;;;;;5071206;28;19923;-68
2022/11/08 02:02:11;;;;;;;;;;;11.90;99.90;;;;;;5084627;28;19928;-68
2022/11/08 02:04:38;;;;;;;;;;;11.90;99.90;;;;;;5034518;28;19927;-69
2022/11/08 02:07:05;;;;;;;;;;;11.90;99.90;;;;;;5047343;28;19920;-69
2022/11/08 02:09:31;;;;;;;;;;;11.80;99.90;;;;;;5073698;28;19942;-69
2022/11/08 02:11:57;;;;;;;;;;;11.90;99.90;;;;;;5068110;28;19928;-69
2022/11/08 02:14:25;;;;;;;;;;;11.90;99.90;;;;;;5052077;28;19934;-69
2022/11/08 02:16:50;;;;;;;;;;;11.90;99.90;;;;;;5066459;28;19921;-69
2022/11/08 02:19:22;;;;;;;;;;;11.90;99.90;;;;;;5050231;28;20320;-69
2022/11/08 02:21:54;;;;;;;;;;;11.90;99.90;;;;;;5064176;28;20532;-69
2022/11/08 02:24:35;;;;;;;;;;;11.90;99.90;;;;;;5084182;28;19935;-69
2022/11/08 02:27:01;;;;;;;;;;;12.00;99.90;;;;;;5082818;28;19920;-69
2022/11/08 02:29:31;;;;;;;;;;;11.90;99.90;;;;;;5064052;28;20377;-69
2022/11/08 02:31:57;;;;;;;;;;;11.90;99.90;;;;;;5059358;28;20152;-69
2022/11/08 02:34:31;;;;;;;;;;;12.00;99.90;;;;;;5067000;28;19920;-69
2022/11/08 02:36:57;;;;;;;;;;;11.90;99.90;;;;;;5048225;28;19928;-69
2022/11/08 02:39:23;;;;;;;;;;;11.90;99.90;;;;;;5067554;28;19935;-69
2022/11/08 02:41:48;;;;;;;;;;;11.90;99.90;;;;;;5079541;28;19924;-69
2022/11/08 02:44:14;;;;;;;;;;;11.80;99.90;;;;;;5044599;28;19932;-69
2022/11/08 02:46:46;;;;;;;;;;;11.80;99.90;;;;;;5045966;28;19927;-69
2022/11/08 02:49:12;;;;;;;;;;;11.70;99.90;;;;;;5047910;28;19919;-69
2022/11/08 02:51:37;;;;;;;;;;;11.70;99.90;;;;;;5065633;28;19970;-68
2022/11/08 02:54:03;;;;;;;;;;;11.70;99.90;;;;;;5048660;28;20014;-69
2022/11/08 02:56:29;;;;;;;;;;;11.60;99.90;;;;;;5085837;28;19927;-68
2022/11/08 02:58:57;;;;;;;;;;;11.60;99.90;;;;;;5066710;28;19928;-68
2022/11/08 03:01:22;;;;;;;;;;;11.60;99.90;;;;;;5078870;28;19924;-69
2022/11/08 03:03:48;;;;;;;;;;;11.60;99.90;;;;;;5086738;28;19942;-69
2022/11/08 03:06:14;;;;;;;;;;;11.50;99.90;;;;;;5076654;28;20606;-69
2022/11/08 03:08:45;;;;;;;;;;;11.50;99.90;;;;;;5065470;28;19924;-69
2022/11/08 03:11:11;;;;;;;;;;;11.40;99.90;;;;;;5062995;28;19920;-68
2022/11/08 03:13:37;;;;;;;;;;;11.40;99.90;;;;;;5051579;28;20284;-68
2022/11/08 03:16:10;;;;;;;;;;;11.40;99.90;;;;;;5078869;28;19925;-69
2022/11/08 03:18:36;;;;;;;;;;;11.40;99.90;;;;;;5063898;28;19924;-68
2022/11/08 03:21:02;;;;;;;;;;;11.40;99.90;;;;;;5066675;28;19977;-69
2022/11/08 03:23:27;;;;;;;;;;;11.30;99.90;;;;;;5067942;28;19920;-68
2022/11/08 03:25:53;;;;;;;;;;;11.30;99.90;;;;;;5068706;28;19946;-68
2022/11/08 03:28:19;;;;;;;;;;;11.30;99.90;;;;;;5065962;28;19928;-69
2022/11/08 03:30:44;;;;;;;;;;;11.30;99.90;;;;;;5042282;28;19920;-69
2022/11/08 03:33:10;;;;;;;;;;;11.30;99.90;;;;;;5064639;28;19957;-69
2022/11/08 03:35:36;;;;;;;;;;;11.30;99.90;;;;;;5067292;28;19999;-68
2022/11/08 03:38:02;;;;;;;;;;;11.20;99.90;;;;;;5061667;28;19924;-69
2022/11/08 03:40:27;;;;;;;;;;;11.20;99.90;;;;;;5064837;28;20018;-68
2022/11/08 03:42:55;;;;;;;;;;;11.20;99.90;;;;;;5048052;28;19974;-69
2022/11/08 03:45:21;;;;;;;;;;;11.20;99.90;;;;;;5065002;28;19998;-69
2022/11/08 03:47:47;;;;;;;;;;;11.20;99.90;;;;;;5062721;28;20380;-69
2022/11/08 03:50:13;;;;;;;;;;;11.10;99.90;;;;;;5065438;28;19924;-69
2022/11/08 03:52:46;;;;;;;;;;;11.10;99.90;;;;;;5067326;28;19920;-69
2022/11/08 03:55:12;;;;;;;;;;;11.00;99.90;;;;;;5060134;28;19928;-69
2022/11/08 03:57:41;;;;;;;;;;;11.00;99.90;;;;;;5063279;28;20029;-69
2022/11/08 04:00:08;;;;;;;;;;;11.00;99.90;;;;;;5072208;28;19920;-69
2022/11/08 04:02:33;;;;;;;;;;;11.00;99.90;;;;;;5060102;28;19920;-68
2022/11/08 04:04:59;;;;;;;;;;;11.00;99.90;;;;;;5048089;28;19955;-69
2022/11/08 04:07:27;;;;;;;;;;;12.50;99.90;;;;;;5065139;28;19921;-69
2022/11/08 04:09:53;;;;;;;;;;;11.00;99.90;;;;;;5077328;28;19999;-69
2022/11/08 04:15:16;;;;;;;;;;;11.00;99.90;;;;;;5062213;28;19972;-69
2022/11/08 04:21:18;;;;;;;;;;;10.90;99.90;;;;;;5060580;28;20039;-68
2022/11/08 04:23:45;;;;;;;;;;;10.90;99.90;;;;;;5055969;28;19920;-69
2022/11/08 04:26:11;;;;;;;;;;;10.80;99.90;;;;;;5082137;28;19932;-69
2022/11/08 04:28:38;;;;;;;;;;;10.80;99.90;;;;;;5062048;28;19928;-69
2022/11/08 04:31:12;;;;;;;;;;;10.70;99.90;;;;;;5080954;28;20271;-69
2022/11/08 04:33:38;;;;;;;;;;;10.70;99.90;;;;;;5064429;28;19933;-70
2022/11/08 04:36:12;;;;;;;;;;;10.70;99.90;;;;;;5063200;28;19923;-69
2022/11/08 04:38:38;;;;;;;;;;;10.70;99.90;;;;;;5073087;22;19931;-87
2022/11/08 04:41:05;;;;;;;;;;;10.60;99.90;;;;;;5071582;28;19924;-87
2022/11/08 04:43:31;;;;;;;;;;;10.60;99.90;;;;;;5051696;28;19924;-87
2022/11/08 04:46:01;;;;;;;;;;;10.60;99.90;;;;;;5038405;28;19973;-87
2022/11/08 04:48:26;;;;;;;;;;;10.60;99.90;;;;;;5068625;28;19924;-86
2022/11/08 04:50:52;;;;;;;;;;;10.60;99.90;;;;;;5054603;28;20388;-87
2022/11/08 04:53:17;;;;;;;;;;;10.50;99.90;;;;;;5054712;28;20018;-87
2022/11/08 04:55:43;;;;;;;;;;;10.50;99.90;;;;;;5038254;28;19928;-87
2022/11/08 04:58:08;;;;;;;;;;;10.50;99.90;;;;;;5069692;28;20384;-87
2022/11/08 05:00:34;;;;;;;;;;;10.50;99.90;;;;;;5051901;28;20320;-87
2022/11/08 05:03:02;;;;;;;;;;;10.50;99.90;;;;;;5038699;28;19969;-87
2022/11/08 05:05:28;;;;;;;;;;;10.50;99.90;;;;;;5037410;28;19965;-87
2022/11/08 05:07:54;;;;;;;;;;;10.50;99.90;;;;;;5068478;28;19920;-87
2022/11/08 05:10:19;;;;;;;;;;;11.50;99.90;;;;;;5052419;28;19924;-87
2022/11/08 05:12:45;;;;;;;;;;;10.50;99.90;;;;;;5052250;28;19985;-87
2022/11/08 05:15:10;;;;;;;;;;;10.50;99.90;;;;;;5068411;28;19931;-86
2022/11/08 05:17:36;;;;;;;;;;;10.40;99.90;;;;;;5053679;28;19931;-87
2022/11/08 05:25:31;;;;;;;;;;;10.40;99.90;;;;;;5066626;28;20651;-87
2022/11/08 05:27:57;;;;;;;;;;;10.40;99.90;;;;;;5054536;28;19921;-87
2022/11/08 05:30:22;;;;;;;;;;;10.40;99.90;;;;;;5037050;28;20015;-87
2022/11/08 05:32:49;;;;;;;;;;;10.40;99.90;;;;;;5053492;28;19989;-86
2022/11/08 05:35:17;;;;;;;;;;;10.30;99.90;;;;;;5067491;28;19925;-87
2022/11/08 05:37:43;;;;;;;;;;;10.30;99.90;;;;;;5049811;28;19920;-87
2022/11/08 05:40:09;;;;;;;;;;;10.60;99.90;;;;;;5051313;28;19947;-87
2022/11/08 05:42:34;;;;;;;;;;;10.20;99.90;;;;;;5053772;28;19928;-87
2022/11/08 05:45:00;;;;;;;;;;;10.30;99.90;;;;;;5035804;28;20294;-87
2022/11/08 05:47:25;;;;;;;;;;;10.40;99.90;;;;;;5037017;28;19927;-87
2022/11/08 05:49:51;;;;;;;;;;;10.30;99.90;;;;;;5052941;28;20301;-88
2022/11/08 05:52:16;;;;;;;;;;;10.30;99.90;;;;;;5051838;28;20292;-89
2022/11/08 05:54:42;;;;;;;;;;;10.30;99.90;;;;;;5040601;28;19931;-88
2022/11/08 05:57:07;;;;;;;;;;;10.40;99.90;;;;;;5087487;28;19924;-88
2022/11/08 05:59:33;;;;;;;;;;;10.40;99.90;;;;;;5034556;28;19924;-89
2022/11/08 06:02:02;;;;;;;;;;;10.40;99.90;;;;;;5054466;28;19928;-89
2022/11/08 06:04:27;;;;;;;;;;;10.50;99.90;;;;;;5053237;28;20282;-88
2022/11/08 06:06:53;;;;;;;;;;;10.50;99.90;;;;;;5056739;28;19924;-88
2022/11/08 06:09:18;;;;;;;;;;;10.50;99.90;;;;;;5049250;28;20266;-89
2022/11/08 06:11:44;;;;;;;;;;;10.40;99.90;;;;;;5036087;28;19924;-89
2022/11/08 06:14:09;;;;;;;;;;;10.40;99.90;;;;;;5067183;28;19928;-89
2022/11/08 06:16:35;;;;;;;;;;;10.40;99.90;;;;;;5033818;28;20369;-87
2022/11/08 06:19:00;;;;;;;;;;;10.30;99.90;;;;;;5055496;28;20288;-86
2022/11/08 06:21:26;;;;;;;;;;;10.30;99.90;;;;;;5071155;28;19951;-87
2022/11/08 06:23:53;;;;;;;;;;;10.30;99.90;;;;;;5054758;28;19996;-93
2022/11/08 06:26:19;;;;;;;;;;;10.30;99.90;;;;;;5054501;28;19920;-83
2022/11/08 06:28:45;;;;;;;;;;;10.30;99.90;;;;;;5067720;28;19965;-87
2022/11/08 06:31:10;;;;;;;;;;;10.30;99.90;;;;;;5067943;28;19924;-86
2022/11/08 06:33:36;;;;;;;;;;;10.20;99.90;;;;;;5050577;28;20309;-88
2022/11/08 06:36:01;;;;;;;;;;;10.90;99.90;;;;;;5067839;28;19931;-87
2022/11/08 06:38:27;;;;;;;;;;;10.30;99.90;;;;;;5034531;28;20011;-86
2022/11/08 06:40:59;;;;;;;;;;;10.30;99.90;;;;;;5048515;28;19931;-86
2022/11/08 06:43:25;;;;;;;;;;;10.30;99.90;;;;;;5051405;28;19970;-84
2022/11/08 06:45:50;;;;;;;;;;;10.20;99.90;;;;;;5066572;28;20169;-84
2022/11/08 06:48:16;;;;;;;;;;;10.30;99.90;;;;;;5046452;28;20327;-85
2022/11/08 06:50:42;;;;;;;;;;;10.20;99.90;;;;;;5050978;28;19920;-84
2022/11/08 06:53:10;;;;;;;;;;;10.30;99.90;;;;;;5067359;28;20385;-85
2022/11/08 06:55:35;;;;;;;;;;;10.20;99.90;;;;;;5067948;28;19927;-89
2022/11/08 06:58:01;;;;;;;;;;;10.20;99.90;;;;;;5052539;28;19927;-88
2022/11/08 07:00:27;;;;;;;;;;;10.30;99.90;;;;;;5060118;28;19920;-88
2022/11/08 07:02:53;;;;;;;;;;;10.30;99.90;;;;;;5051089;28;19920;-87
2022/11/08 07:05:19;;;;;;;;;;;10.30;99.90;;;;;;5050575;28;19964;-87
2022/11/08 07:07:50;;;;;;;;;;;10.30;99.90;;;;;;5049622;28;19971;-88
2022/11/08 07:10:17;;;;;;;;;;;10.30;99.90;;;;;;5032962;28;19924;-87
2022/11/08 07:12:42;;;;;;;;;;;10.40;99.90;;;;;;5068938;28;19928;-87
2022/11/08 07:15:08;;;;;;;;;;;10.50;99.90;;;;;;5067541;28;20442;-87
2022/11/08 07:17:34;;;;;;;;;;;10.50;99.90;;;;;;5049017;28;19920;-87
2022/11/08 07:19:59;;;;;;;;;;;10.50;99.90;;;;;;5034405;28;19986;-87
2022/11/08 07:22:25;;;;;;;;;;;10.50;99.90;;;;;;5049321;28;19928;-87
2022/11/08 07:24:50;;;;;;;;;;;10.50;99.90;;;;;;5067604;28;19920;-86
2022/11/08 07:27:16;;;;;;;;;;;10.50;99.90;;;;;;5034450;28;19931;-87
2022/11/08 07:29:41;;;;;;;;;;;10.50;99.90;;;;;;5067472;28;19932;-86
2022/11/08 07:32:07;;;;;;;;;;;10.60;99.90;;;;;;5051761;28;19964;-87
2022/11/08 07:34:32;;;;;;;;;;;10.60;99.90;;;;;;5068324;28;19968;-87
2022/11/08 07:36:58;;;;;;;;;;;10.60;99.90;;;;;;5046168;28;19920;-86
2022/11/08 07:39:24;;;;;;;;;;;10.50;99.90;;;;;;5069998;28;19974;-86
2022/11/08 07:41:49;;;;;;;;;;;10.60;99.90;;;;;;5053294;28;19921;-87
2022/11/08 07:44:15;;;;;;;;;;;10.60;99.90;;;;;;5070883;28;19927;-87
2022/11/08 07:46:43;;;;;;;;;;;10.60;99.90;;;;;;5049387;28;20440;-88
2022/11/08 07:49:09;;;;;;;;;;;9.70;99.90;;;;;;5026008;28;21120;-87
2022/11/08 07:51:34;;;;;;;;;;;10.60;99.90;;;;;;5038164;28;19932;-85
2022/11/08 07:54:00;;;;;;;;;;;10.30;99.90;;;;;;5063093;28;20776;-86
2022/11/08 07:56:25;;;;;;;;;;;10.60;99.90;;;;;;5069122;28;19924;-85
2022/11/08 07:58:52;;;;;;;;;;;10.70;99.90;;;;;;5054490;28;19920;-85
2022/11/08 08:01:17;;;;;;;;;;;10.60;99.90;;;;;;5072209;28;19943;-85
2022/11/08 08:03:43;;;;;;;;;;;10.70;99.90;;;;;;5072060;28;20025;-85
2022/11/08 08:06:09;;;;;;;;;;;10.70;99.90;;;;;;5072023;28;19924;-85
2022/11/08 08:08:35;;;;;;;;;;;10.70;99.90;;;;;;5072060;28;19920;-85
2022/11/08 08:11:02;;;;;;;;;;;10.70;99.90;;;;;;5054905;28;20332;-85
2022/11/08 08:13:27;;;;;;;;;;;10.80;99.90;;;;;;5039589;28;20015;-85
2022/11/08 08:15:55;;;;;;;;;;;10.80;99.90;;;;;;5059116;28;20432;-85
2022/11/08 08:18:21;;;;;;;;;;;10.80;99.90;;;;;;5075518;28;19921;-85
2022/11/08 08:20:46;;;;;;;;;;;10.90;99.90;;;;;;5042986;28;19920;-84
2022/11/08 08:23:12;;;;;;;;;;;10.90;99.90;;;;;;5056360;28;20500;-85
2022/11/08 08:25:37;;;;;;;;;;;11.00;99.90;;;;;;5058876;28;19920;-85
2022/11/08 08:28:04;;;;;;;;;;;11.00;99.90;;;;;;5075369;28;19928;-85
2022/11/08 08:30:30;;;;;;;;;;;11.10;99.90;;;;;;5059115;28;19920;-85
2022/11/08 08:33:12;;;;;;;;;;;11.20;99.90;;;;;;5075341;28;19939;-85
2022/11/08 08:35:38;;;;;;;;;;;11.30;99.90;;;;;;5058987;28;19935;-85
2022/11/08 08:38:04;;;;;;;;;;;11.40;99.90;;;;;;5072950;28;19962;-85
2022/11/08 08:40:31;;;;;;;;;;;11.60;99.90;;;;;;5075841;28;19927;-85
2022/11/08 08:42:57;;;;;;;;;;;11.70;99.90;;;;;;5075369;28;19924;-85
2022/11/08 08:45:23;;;;;;;;;;;12.00;99.90;;;;;;5042152;28;19954;-85
2022/11/08 08:47:49;;;;;;;;;;;12.10;99.90;;;;;;5075603;28;19924;-85
2022/11/08 08:50:15;;;;;;;;;;;12.10;99.90;;;;;;5058690;28;20037;-85
2022/11/08 08:52:41;;;;;;;;;;;12.10;99.90;;;;;;5058037;28;20024;-85
2022/11/08 08:55:07;;;;;;;;;;;12.20;99.90;;;;;;5041619;28;19927;-84
2022/11/08 08:57:32;;;;;;;;;;;12.00;99.90;;;;;;5058226;28;19920;-85
2022/11/08 08:59:58;;;;;;;;;;;12.00;99.90;;;;;;5058352;28;19952;-85
2022/11/08 09:02:24;;;;;;;;;;;12.00;99.90;;;;;;5074712;28;19947;-85
2022/11/08 09:04:49;;;;;;;;;;;12.00;99.90;;;;;;5074903;28;20007;-84
2022/11/08 09:07:15;;;;;;;;;;;11.90;99.90;;;;;;5074968;28;20379;-85
2022/11/08 09:09:40;;;;;;;;;;;11.90;99.90;;;;;;5057747;28;19920;-84
2022/11/08 09:12:06;;;;;;;;;;;12.00;99.90;;;;;;5074471;28;19993;-85
2022/11/08 09:14:32;;;;;;;;;;;12.00;99.90;;;;;;5057838;28;20010;-85
2022/11/08 09:16:57;;;;;;;;;;;12.10;99.90;;;;;;5074368;28;19943;-84
2022/11/08 09:19:23;;;;;;;;;;;12.10;99.90;;;;;;5041263;28;19999;-85
2022/11/08 09:21:49;;;;;;;;;;;12.20;99.90;;;;;;5058014;28;19920;-84
2022/11/08 09:24:16;;;;;;;;;;;12.30;99.90;;;;;;5057892;28;20447;-85
2022/11/08 09:26:41;;;;;;;;;;;12.30;99.90;;;;;;5041357;28;20015;-84
2022/11/08 09:29:07;;;;;;;;;;;12.40;99.90;;;;;;5057775;28;20008;-85
2022/11/08 09:31:32;;;;;;;;;;;12.40;99.90;;;;;;5074070;28;19935;-84
2022/11/08 09:33:58;;;;;;;;;;;12.50;99.90;;;;;;5074201;28;19973;-85
2022/11/08 09:36:23;;;;;;;;;;;12.50;99.90;;;;;;5040960;28;19920;-84
2022/11/08 09:38:49;;;;;;;;;;;12.50;99.90;;;;;;5073888;28;19924;-84
2022/11/08 09:41:21;;;;;;;;;;;12.60;99.90;;;;;;5041226;28;20365;-85
2022/11/08 09:43:51;;;;;;;;;;;12.60;99.90;;;;;;5057101;28;19928;-84
2022/11/08 09:46:25;;;;;;;;;;;12.60;99.90;;;;;;5072673;28;19920;-84
2022/11/08 09:48:52;;;;;;;;;;;12.70;99.90;;;;;;5056768;28;19944;-84
2022/11/08 09:51:19;;;;;;;;;;;12.70;99.90;;;;;;5073812;28;19931;-85
2022/11/08 09:53:45;;;;;;;;;;;12.80;99.90;;;;;;5073957;28;20004;-84
2022/11/08 09:56:14;;;;;;;;;;;12.90;99.90;;;;;;5073984;28;20006;-84
2022/11/08 09:58:40;;;;;;;;;;;12.90;99.90;;;;;;5074293;28;19920;-85
2022/11/08 10:01:12;;;;;;;;;;;13.00;99.90;;;;;;5057580;28;20403;-85
2022/11/08 10:03:38;;;;;;;;;;;13.00;99.90;;;;;;5057056;28;19920;-84
2022/11/08 10:06:07;;;;;;;;;;;13.10;99.90;;;;;;5073554;28;19924;-85
2022/11/08 10:08:35;;;;;;;;;;;13.10;99.90;;;;;;5073564;28;19954;-85
2022/11/08 10:11:11;;;;;;;;;;;13.10;99.90;;;;;;5073168;28;19943;-85
2022/11/08 10:14:03;;;;;;;;;;;13.10;99.90;;;;;;5054189;28;19966;-85
2022/11/08 10:16:32;;;;;;;;;;;13.20;99.90;;;;;;5056772;28;19928;-84
2022/11/08 10:19:11;;;;;;;;;;;13.30;99.90;;;;;;5056572;28;19931;-85
2022/11/08 10:21:46;;;;;;;;;;;13.40;99.90;;;;;;5056306;28;19928;-85
2022/11/08 10:24:30;;;;;;;;;;;13.40;99.90;;;;;;5073515;28;19998;-84
2022/11/08 10:26:57;;;;;;;;;;;13.50;99.90;;;;;;5073000;28;20000;-84
2022/11/08 10:29:35;;;;;;;;;;;13.50;99.90;;;;;;5056581;28;20411;-84
2022/11/08 10:32:04;;;;;;;;;;;13.60;99.90;;;;;;5073017;28;19961;-85
2022/11/08 10:34:35;;;;;;;;;;;13.60;99.90;;;;;;5056438;28;19946;-85
2022/11/08 10:37:02;;;;;;;;;;;13.60;99.90;;;;;;5072538;28;20572;-85
2022/11/08 10:39:31;;;;;;;;;;;13.60;99.90;;;;;;5056124;28;20491;-85
2022/11/08 10:42:19;;;;;;;;;;;13.60;99.90;;;;;;5072912;28;19931;-84
2022/11/08 10:44:45;;;;;;;;;;;13.60;99.90;;;;;;5070611;28;20353;-84
2022/11/08 10:47:30;;;;;;;;;;;13.60;99.90;;;;;;5073106;28;20007;-85
2022/11/08 10:49:57;;;;;;;;;;;13.60;99.90;;;;;;5072073;28;19931;-85
2022/11/08 10:52:44;;;;;;;;;;;13.60;99.90;;;;;;5072425;28;20005;-85
2022/11/08 10:55:24;;;;;;;;;;;13.70;99.90;;;;;;5056150;28;19927;-85
2022/11/08 10:57:49;;;;;;;;;;;13.70;99.90;;;;;;5073067;28;20559;-85
2022/11/08 11:00:21;;;;;;;;;;;13.70;99.90;;;;;;5072694;28;19920;-85
2022/11/08 11:02:49;;;;;;;;;;;13.70;99.90;;;;;;5072326;28;19974;-84
2022/11/08 11:05:15;;;;;;;;;;;13.70;99.90;;;;;;5072175;28;19931;-84
2022/11/08 11:07:44;;;;;;;;;;;13.70;99.90;;;;;;5073184;28;19920;-84
2022/11/08 11:10:26;;;;;;;;;;;13.70;99.90;;;;;;5055937;28;19928;-84
2022/11/08 11:13:01;;;;;;;;;;;13.70;99.90;;;;;;5072455;28;19931;-84
2022/11/08 11:15:34;;;;;;;;;;;13.70;99.90;;;;;;5055426;28;19967;-84
2022/11/08 11:17:59;;;;;;;;;;;13.70;99.90;;;;;;5072865;28;19989;-84
2022/11/08 11:20:25;;;;;;;;;;;13.70;99.90;;;;;;5072563;28;20373;-85
2022/11/08 11:22:51;;;;;;;;;;;13.70;99.90;;;;;;5038969;28;20400;-84
2022/11/08 11:25:18;;;;;;;;;;;13.80;99.90;;;;;;5072461;28;19920;-84
2022/11/08 11:27:48;;;;;;;;;;;13.80;99.90;;;;;;5057336;28;19920;-84
2022/11/08 11:30:22;;;;;;;;;;;13.80;99.90;;;;;;5072206;28;19920;-85
2022/11/08 11:33:14;;;;;;;;;;;13.80;99.90;;;;;;5053114;28;19924;-84
2022/11/08 11:35:45;;;;;;;;;;;13.90;99.90;;;;;;5052151;28;19987;-84
2022/11/08 11:38:37;;;;;;;;;;;13.90;99.90;;;;;;5068042;28;20012;-84
2022/11/08 11:41:08;;;;;;;;;;;14.00;99.90;;;;;;5050956;28;19920;-85
2022/11/08 11:43:41;;;;;;;;;;;14.10;99.90;;;;;;5055570;28;19924;-84
2022/11/08 11:46:10;;;;;;;;;;;14.20;99.90;;;;;;5071993;28;19927;-85
2022/11/08 11:48:41;;;;;;;;;;;14.30;99.90;;;;;;5074889;28;19920;-85
2022/11/08 11:51:07;;;;;;;;;;;14.30;99.90;;;;;;5059309;28;19928;-85
2022/11/08 11:53:35;;;;;;;;;;;14.40;99.90;;;;;;5076154;28;19978;-85
2022/11/08 11:56:04;;;;;;;;;;;14.40;99.90;;;;;;5076190;28;20320;-84
2022/11/08 11:58:48;;;;;;;;;;;14.30;99.90;;;;;;5076326;28;19942;-85
2022/11/08 12:01:24;;;;;;;;;;;14.40;99.90;;;;;;5075730;28;20031;-84
2022/11/08 12:04:16;;;;;;;;;;;14.30;99.90;;;;;;5076040;28;20409;-84
2022/11/08 12:07:01;;;;;;;;;;;14.30;99.90;;;;;;5074574;28;20374;-84
2022/11/08 12:09:26;;;;;;;;;;;14.30;99.90;;;;;;5075894;28;19924;-84
2022/11/08 12:11:58;;;;;;;;;;;14.20;99.90;;;;;;5075526;28;19977;-85
2022/11/08 12:14:38;;;;;;;;;;;14.20;99.90;;;;;;5076078;28;20007;-84
2022/11/08 12:17:06;;;;;;;;;;;14.20;99.90;;;;;;5059031;28;19920;-85
2022/11/08 12:19:41;;;;;;;;;;;14.20;99.90;;;;;;5059051;28;19924;-84
2022/11/08 12:22:16;;;;;;;;;;;14.20;99.90;;;;;;5075333;28;19920;-85
2022/11/08 12:25:00;;;;;;;;;;;14.20;99.90;;;;;;5075959;28;19920;-85
2022/11/08 12:27:41;;;;;;;;;;;14.20;99.90;;;;;;5073167;28;19924;-84
2022/11/08 12:30:07;;;;;;;;;;;14.30;99.90;;;;;;5075666;28;19920;-84
2022/11/08 12:32:51;;;;;;;;;;;14.30;99.90;;;;;;5058824;28;19928;-84
2022/11/08 12:35:36;;;;;;;;;;;14.30;99.90;;;;;;5075532;28;19920;-85
2022/11/08 12:38:20;;;;;;;;;;;14.40;99.90;;;;;;5067379;28;19949;-85
2022/11/08 12:40:51;;;;;;;;;;;14.40;99.90;;;;;;5075792;28;19999;-85
2022/11/08 12:43:29;;;;;;;;;;;14.30;99.90;;;;;;5058477;28;19920;-84
2022/11/08 12:46:01;;;;;;;;;;;14.30;99.90;;;;;;5058469;28;20451;-84
2022/11/08 12:48:44;;;;;;;;;;;14.30;99.90;;;;;;5075650;28;19920;-84
2022/11/08 12:51:15;;;;;;;;;;;14.20;99.90;;;;;;5058105;28;20023;-84
2022/11/08 12:53:54;;;;;;;;;;;14.20;99.90;;;;;;5075323;28;20538;-84
2022/11/08 12:56:21;;;;;;;;;;;14.20;99.90;;;;;;5058462;28;19920;-84
2022/11/08 12:58:49;;;;;;;;;;;14.20;99.90;;;;;;5057986;28;19972;-84
2022/11/08 13:01:15;;;;;;;;;;;14.20;99.90;;;;;;5058181;28;19927;-85
2022/11/08 13:03:41;;;;;;;;;;;14.20;99.90;;;;;;5072711;28;19935;-84
2022/11/08 13:06:07;;;;;;;;;;;14.20;99.90;;;;;;5074811;28;19923;-85
2022/11/08 13:08:36;;;;;;;;;;;14.30;99.90;;;;;;5057961;28;19943;-84
2022/11/08 13:11:07;;;;;;;;;;;14.40;99.90;;;;;;5074708;28;19928;-85
2022/11/08 13:13:48;;;;;;;;;;;14.60;99.90;;;;;;5058056;28;19972;-84
2022/11/08 13:16:19;;;;;;;;;;;14.70;99.90;;;;;;5072802;28;20455;-84
2022/11/08 13:18:49;;;;;;;;;;;14.80;99.90;;;;;;5058261;28;20011;-84
2022/11/08 13:21:27;;;;;;;;;;;14.80;99.90;;;;;;5074137;28;19920;-84
2022/11/08 13:23:53;;;;;;;;;;;14.80;99.90;;;;;;5057594;28;20001;-84
2022/11/08 13:26:24;;;;;;;;;;;14.80;99.90;;;;;;5057873;28;20384;-84
2022/11/08 13:28:50;;;;;;;;;;;14.70;99.90;;;;;;5074240;28;19939;-84
2022/11/08 13:31:26;;;;;;;;;;;14.70;99.90;;;;;;5040912;28;19927;-84
2022/11/08 13:34:01;;;;;;;;;;;14.60;99.90;;;;;;5074670;28;19920;-84
2022/11/08 13:36:49;;;;;;;;;;;14.60;99.90;;;;;;5057583;28;19935;-84
2022/11/08 13:39:24;;;;;;;;;;;14.50;99.90;;;;;;5057011;28;20404;-84
2022/11/08 13:42:00;;;;;;;;;;;14.50;99.90;;;;;;5074620;28;20277;-84
2022/11/08 13:44:45;;;;;;;;;;;14.50;99.90;;;;;;5057483;28;19966;-84
2022/11/08 13:47:42;;;;;;;;;;;14.40;99.90;;;;;;5074495;28;19920;-85
2022/11/08 13:50:32;;;;;;;;;;;14.40;99.90;;;;;;5073042;28;19920;-84
2022/11/08 13:53:07;;;;;;;;;;;14.40;99.90;;;;;;5072098;28;19931;-85
2022/11/08 13:55:53;;;;;;;;;;;14.40;99.90;;;;;;5057060;28;19946;-84
2022/11/08 13:58:48;;;;;;;;;;;14.40;99.90;;;;;;5042031;28;20007;-84
2022/11/08 14:01:17;;;;;;;;;;;14.40;99.90;;;;;;5044238;28;20343;-84
2022/11/08 14:03:45;;;;;;;;;;;14.40;99.90;;;;;;5074134;28;19920;-84
2022/11/08 14:06:20;;;;;;;;;;;14.40;99.90;;;;;;5073713;28;19928;-84
2022/11/08 14:08:57;;;;;;;;;;;14.40;99.90;;;;;;5073579;28;20499;-84
2022/11/08 14:11:23;;;;;;;;;;;14.40;99.90;;;;;;5055195;28;19928;-84
2022/11/08 14:14:00;;;;;;;;;;;14.30;99.90;;;;;;5056709;28;19927;-84
2022/11/08 14:16:33;;;;;;;;;;;14.30;99.90;;;;;;5073589;28;20412;-84
2022/11/08 14:19:18;;;;;;;;;;;14.30;99.90;;;;;;5073228;28;19921;-84
2022/11/08 14:21:51;;;;;;;;;;;14.30;99.90;;;;;;5073624;28;19920;-85
2022/11/08 14:24:19;;;;;;;;;;;14.30;99.90;;;;;;5056723;28;19973;-85
2022/11/08 14:26:45;;;;;;;;;;;14.30;99.90;;;;;;5056626;28;19928;-84
2022/11/08 14:29:15;;;;;;;;;;;14.30;99.90;;;;;;5056593;28;19974;-84
2022/11/08 14:31:40;;;;;;;;;;;14.30;99.90;;;;;;5073485;28;19947;-84
2022/11/08 14:34:25;;;;;;;;;;;14.20;99.90;;;;;;5073132;28;20444;-84
2022/11/08 14:36:50;;;;;;;;;;;14.20;99.90;;;;;;5073353;28;19920;-84
2022/11/08 14:39:17;;;;;;;;;;;14.20;99.90;;;;;;5072855;28;19935;-84
2022/11/08 14:41:44;;;;;;;;;;;14.20;99.90;;;;;;5056876;28;19920;-84
2022/11/08 14:44:12;;;;;;;;;;;14.20;99.90;;;;;;5049639;28;19927;-84
2022/11/08 14:46:38;;;;;;;;;;;14.20;99.90;;;;;;5050496;28;19920;-83
2022/11/08 14:49:09;;;;;;;;;;;14.10;99.90;;;;;;5051583;28;19927;-84